Time;durP1;ratioP1;P1;durP2;ratioP2;P2;SDS_P1;SDS_P2;PMS_P1;PMS_P2;Temp;Humidity;BMP_temperature;BMP_pressure;BME280_temperature;BME280_humidity;BME280_pressure;Samples;Min_cycle;Max_cycle;Signal;HPM_P1;HPM_P2
2022/03/10 00:01:26;;;;;;;6.33;5.10;;;15.80;42.30;17.10;101587.00;;;;5056364;28;20170;-48
2022/03/10 00:03:52;;;;;;;5.73;5.23;;;15.70;42.20;17.10;101589.00;;;;5057119;28;20194;-48
2022/03/10 00:06:18;;;;;;;5.30;4.90;;;15.70;42.20;17.10;101592.00;;;;5058306;28;20838;-48
2022/03/10 00:08:44;;;;;;;5.97;5.47;;;15.70;42.30;17.10;101599.00;;;;5056074;28;20170;-48
2022/03/10 00:11:09;;;;;;;6.23;5.63;;;15.70;42.30;17.10;101607.00;;;;5054724;28;20181;-48
2022/03/10 00:13:35;;;;;;;6.10;5.60;;;15.70;42.10;17.10;101604.00;;;;5076642;28;20771;-49
2022/03/10 00:16:01;;;;;;;5.70;5.20;;;15.70;42.80;16.80;101548.00;;;;5076628;28;20173;-48
2022/03/10 00:18:26;;;;;;;6.23;5.63;;;15.60;40.80;17.00;101600.00;;;;5076657;28;20197;-48
2022/03/10 00:20:52;;;;;;;5.17;4.77;;;15.60;41.70;17.00;101597.00;;;;5075587;28;20947;-48
2022/03/10 00:23:18;;;;;;;5.77;5.20;;;15.60;42.10;17.00;101596.00;;;;5075908;28;20253;-48
2022/03/10 00:25:44;;;;;;;5.63;5.13;;;15.60;42.10;16.90;101604.00;;;;5074623;28;20182;-47
2022/03/10 00:28:10;;;;;;;5.23;4.73;;;15.50;42.10;16.90;101598.00;;;;5075667;28;20170;-47
2022/03/10 00:30:35;;;;;;;5.93;5.43;;;15.50;42.10;16.90;101592.00;;;;5075518;28;20268;-49
2022/03/10 00:33:01;;;;;;;5.80;5.30;;;15.50;42.00;16.90;101591.00;;;;5074847;28;20185;-47
2022/03/10 00:35:27;;;;;;;6.43;5.70;;;15.50;41.60;16.90;101589.00;;;;5074284;28;20182;-48
2022/03/10 00:37:53;;;;;;;5.90;5.40;;;15.50;41.60;16.80;101598.00;;;;5073764;28;20181;-48
2022/03/10 00:40:19;;;;;;;6.03;5.53;;;15.50;41.40;16.80;101591.00;;;;5074624;28;20190;-48
2022/03/10 00:42:45;;;;;;;6.40;5.80;;;15.50;41.40;16.80;101609.00;;;;5074996;28;20174;-48
2022/03/10 00:45:11;;;;;;;6.20;5.70;;;15.50;40.80;16.80;101612.00;;;;5075496;28;20193;-48
2022/03/10 00:47:37;;;;;;;6.30;5.80;;;15.50;40.90;16.70;101614.00;;;;5075670;28;20224;-48
2022/03/10 00:50:04;;;;;;;6.10;5.50;;;15.50;41.20;16.70;101622.00;;;;5074649;28;20546;-48
2022/03/10 00:52:29;;;;;;;6.37;5.77;;;15.40;40.90;16.40;101616.00;;;;5075128;28;20525;-48
2022/03/10 00:54:55;;;;;;;6.33;5.73;;;15.40;41.40;16.70;101619.00;;;;5074388;28;20194;-49
2022/03/10 00:57:21;;;;;;;6.00;5.50;;;15.40;41.20;16.60;101615.00;;;;5073630;28;20201;-47
2022/03/10 00:59:47;;;;;;;5.97;5.40;;;15.40;41.00;16.60;101627.00;;;;5074418;28;20192;-49
2022/03/10 01:02:13;;;;;;;6.30;5.80;;;15.40;41.20;16.60;101616.00;;;;5073811;28;20170;-48
2022/03/10 01:04:39;;;;;;;6.50;6.00;;;15.40;40.70;16.60;101607.00;;;;5073688;28;20247;-49
2022/03/10 01:07:04;;;;;;;5.93;5.43;;;15.30;40.50;16.60;101615.00;;;;5073467;28;20161;-49
2022/03/10 01:09:30;;;;;;;6.90;6.20;;;15.30;40.30;16.60;101615.00;;;;5073969;28;20177;-48
2022/03/10 01:11:56;;;;;;;6.43;5.83;;;15.30;40.00;16.60;101620.00;;;;5073775;28;20653;-49
2022/03/10 01:14:21;;;;;;;6.20;5.70;;;15.30;40.00;16.50;101621.00;;;;5074378;28;20190;-47
2022/03/10 01:16:47;;;;;;;6.57;5.97;;;15.30;40.20;16.50;101620.00;;;;5077666;28;20180;-49
2022/03/10 01:19:14;;;;;;;6.93;6.23;;;15.30;40.30;16.50;101617.00;;;;5077539;28;20189;-48
2022/03/10 01:21:41;;;;;;;7.13;6.37;;;15.30;40.50;16.50;101616.00;;;;5078706;28;20177;-48
2022/03/10 01:24:07;;;;;;;6.93;6.33;;;15.30;39.80;16.30;101614.00;;;;5078632;28;20186;-51
2022/03/10 01:26:33;;;;;;;6.80;6.20;;;15.30;39.90;16.30;101619.00;;;;5076833;28;20207;-48
2022/03/10 01:28:58;;;;;;;6.43;5.83;;;15.30;40.10;16.50;101605.00;;;;5078144;28;20193;-49
2022/03/10 01:31:24;;;;;;;7.10;6.50;;;15.30;39.90;16.50;101608.00;;;;5078188;28;20178;-48
2022/03/10 01:33:50;;;;;;;7.47;6.77;;;15.30;39.70;16.40;101608.00;;;;5077894;28;20221;-48
2022/03/10 01:36:15;;;;;;;6.67;6.03;;;15.20;39.60;16.40;101597.00;;;;5078502;28;20227;-49
2022/03/10 01:38:42;;;;;;;6.03;5.53;;;15.20;40.20;16.40;101593.00;;;;5077861;28;20257;-49
2022/03/10 01:41:08;;;;;;;5.83;5.33;;;15.10;40.50;16.30;101568.00;;;;5079111;28;20185;-50
2022/03/10 01:43:53;;;;;;;6.20;5.70;;;15.10;41.10;16.30;101597.00;;;;5077232;28;20166;-48
2022/03/10 01:46:19;;;;;;;6.50;5.90;;;15.00;41.20;16.30;101596.00;;;;5076715;28;20291;-49
2022/03/10 01:48:45;;;;;;;5.80;5.40;;;15.00;41.60;16.30;101590.00;;;;5076884;28;20188;-48
2022/03/10 01:51:11;;;;;;;6.20;5.70;;;15.00;41.70;16.30;101576.00;;;;5077947;28;20200;-48
2022/03/10 01:53:37;;;;;;;6.40;5.90;;;15.00;41.70;16.20;101589.00;;;;5077985;28;20590;-48
2022/03/10 01:56:03;;;;;;;6.00;5.50;;;15.00;41.30;16.20;101581.00;;;;5077422;28;20169;-49
2022/03/10 01:58:29;;;;;;;6.30;5.80;;;14.90;41.70;16.20;101589.00;;;;5076245;28;20239;-49
2022/03/10 02:00:55;;;;;;;6.07;5.50;;;14.90;41.40;16.20;101593.00;;;;5077712;28;20174;-47
2022/03/10 02:03:20;;;;;;;6.07;5.57;;;14.90;42.00;16.10;101596.00;;;;5078091;28;20778;-48
2022/03/10 02:05:46;;;;;;;5.97;5.47;;;14.90;41.90;16.10;101597.00;;;;5078558;28;20189;-49
2022/03/10 02:10:56;;;;;;;6.30;5.80;;;14.80;41.90;16.10;101589.00;;;;5080788;28;20789;-49
2022/03/10 02:13:22;;;;;;;6.43;5.60;;;14.80;41.70;16.00;101587.00;;;;5077864;28;20174;-49
2022/03/10 02:18:32;;;;;;;6.37;5.77;;;14.80;41.60;16.00;101593.00;;;;5078316;28;20212;-48
2022/03/10 02:20:57;;;;;;;6.13;5.57;;;14.80;41.80;16.00;101583.00;;;;5078340;28;20618;-48
2022/03/10 02:23:23;;;;;;;6.13;5.63;;;14.80;41.90;16.00;101584.00;;;;5079461;28;20180;-48
2022/03/10 02:25:49;;;;;;;6.10;5.50;;;14.70;42.00;15.90;101583.00;;;;5077950;28;20201;-49
2022/03/10 02:28:15;;;;;;;5.97;5.47;;;14.70;41.90;15.90;101569.00;;;;5078063;28;20170;-48
2022/03/10 02:30:40;;;;;;;5.90;5.40;;;14.70;41.90;15.90;101579.00;;;;5078024;28;20645;-47
2022/03/10 02:33:06;;;;;;;6.23;5.73;;;14.70;41.90;15.90;101591.00;;;;5079234;28;20169;-48
2022/03/10 02:35:32;;;;;;;6.37;5.83;;;14.70;41.80;15.90;101594.00;;;;5077913;28;20200;-49
2022/03/10 02:37:58;;;;;;;6.87;6.10;;;14.70;41.90;15.90;101586.00;;;;5078285;28;20170;-47
2022/03/10 02:40:24;;;;;;;6.13;5.63;;;14.70;41.90;15.80;101597.00;;;;5078810;28;20219;-47
2022/03/10 02:42:50;;;;;;;6.57;5.97;;;14.70;41.90;15.80;101588.00;;;;5078024;28;20285;-48
2022/03/10 02:45:16;;;;;;;5.70;5.30;;;14.70;41.70;15.80;101593.00;;;;5077888;28;20185;-47
2022/03/10 02:47:41;;;;;;;6.20;5.70;;;14.70;42.00;15.80;101589.00;;;;5078151;28;20162;-48
2022/03/10 02:50:08;;;;;;;6.03;5.53;;;14.70;41.70;15.70;101588.00;;;;5079404;28;20169;-48
2022/03/10 02:52:38;;;;;;;6.13;5.63;;;14.70;41.70;15.70;101587.00;;;;5080273;28;20220;-46
2022/03/10 02:55:05;;;;;;;6.33;5.73;;;14.70;41.60;15.70;101584.00;;;;5075937;28;20190;-49
2022/03/10 02:57:31;;;;;;;6.50;5.90;;;14.70;41.70;15.70;101585.00;;;;5076619;28;20532;-49
2022/03/10 02:59:59;;;;;;;5.83;5.33;;;14.70;41.70;15.70;101591.00;;;;5077433;28;20303;-48
2022/03/10 03:02:25;;;;;;;6.40;5.80;;;14.50;41.60;15.70;101577.00;;;;5077476;28;20177;-49
2022/03/10 03:04:50;;;;;;;5.90;5.40;;;14.50;41.50;15.70;101588.00;;;;5077118;28;20213;-50
2022/03/10 03:07:16;;;;;;;6.40;5.80;;;14.50;41.70;15.70;101579.00;;;;5076651;28;20497;-48
2022/03/10 03:09:42;;;;;;;5.83;5.33;;;14.50;41.80;15.70;101579.00;;;;5077106;28;20204;-51
2022/03/10 03:12:08;;;;;;;6.40;5.80;;;14.50;41.90;15.60;101581.00;;;;5076103;28;20608;-47
2022/03/10 03:14:33;;;;;;;6.53;5.97;;;14.50;41.80;15.60;101576.00;;;;5077423;28;20193;-49
2022/03/10 03:16:59;;;;;;;6.20;5.70;;;14.50;41.70;15.60;101585.00;;;;5076689;28;20169;-49
2022/03/10 03:19:25;;;;;;;6.23;5.63;;;14.50;41.60;15.60;101576.00;;;;5076443;28;20185;-49
2022/03/10 03:21:51;;;;;;;6.50;5.90;;;14.40;41.00;15.60;101577.00;;;;5076496;28;20234;-48
2022/03/10 03:24:17;;;;;;;6.30;5.80;;;14.40;41.70;15.60;101596.00;;;;5076135;28;20205;-49
2022/03/10 03:26:43;;;;;;;6.20;5.67;;;14.40;41.20;15.50;101591.00;;;;5076080;28;20191;-49
2022/03/10 03:29:09;;;;;;;5.73;5.23;;;14.40;41.70;15.50;101589.00;;;;5077314;28;20174;-48
2022/03/10 03:31:35;;;;;;;6.27;5.67;;;14.40;42.50;15.50;101587.00;;;;5076474;28;20178;-46
2022/03/10 03:34:00;;;;;;;5.90;5.40;;;14.40;41.70;15.50;101585.00;;;;5075695;28;20186;-48
2022/03/10 03:36:26;;;;;;;6.13;5.63;;;14.40;41.90;15.50;101586.00;;;;5076110;28;20177;-49
2022/03/10 03:38:52;;;;;;;5.83;5.33;;;14.40;41.60;15.40;101579.00;;;;5075237;28;20229;-48
2022/03/10 03:41:17;;;;;;;6.10;5.60;;;14.30;41.70;15.40;101584.00;;;;5076493;28;20177;-48
2022/03/10 03:43:43;;;;;;;6.07;5.57;;;14.30;41.50;15.40;101581.00;;;;5076290;28;20178;-48
2022/03/10 03:46:10;;;;;;;6.33;5.73;;;14.30;41.70;15.40;101582.00;;;;5065900;28;20245;-47
2022/03/10 03:48:35;;;;;;;5.80;5.30;;;14.30;41.40;15.40;101581.00;;;;5056101;28;20317;-47
2022/03/10 03:51:01;;;;;;;6.73;5.53;;;14.30;41.60;15.40;101573.00;;;;5055825;28;20178;-48
2022/03/10 03:53:27;;;;;;;6.33;5.73;;;14.30;41.80;15.30;101583.00;;;;5055888;28;20186;-47
2022/03/10 03:55:52;;;;;;;5.90;5.40;;;14.30;41.90;15.30;101589.00;;;;5055537;28;20597;-48
2022/03/10 03:58:19;;;;;;;6.00;5.50;;;14.20;42.60;15.30;101589.00;;;;5055689;28;20193;-48
2022/03/10 04:00:45;;;;;;;5.83;5.33;;;14.20;42.00;15.30;101585.00;;;;5057040;28;20186;-47
2022/03/10 04:03:11;;;;;;;6.03;5.53;;;14.20;41.90;15.30;101591.00;;;;5054931;28;20174;-48
2022/03/10 04:05:37;;;;;;;5.80;5.27;;;14.20;41.90;15.30;101593.00;;;;5056089;28;20202;-47
2022/03/10 04:08:04;;;;;;;6.10;5.60;;;14.20;41.90;15.20;101599.00;;;;5055908;28;20181;-49
2022/03/10 04:10:30;;;;;;;6.30;5.80;;;14.20;41.90;15.20;101599.00;;;;5056381;28;20173;-48
2022/03/10 04:12:55;;;;;;;6.57;5.63;;;14.20;42.10;15.20;101609.00;;;;5055592;28;20178;-50
2022/03/10 04:15:21;;;;;;;6.10;5.50;;;14.20;42.10;15.20;101609.00;;;;5054546;28;20256;-47
2022/03/10 04:17:47;;;;;;;6.23;5.60;;;14.20;42.40;15.20;101607.00;;;;5052102;28;20182;-47
2022/03/10 04:20:13;;;;;;;6.10;5.50;;;14.20;41.90;15.20;101589.00;;;;5052724;28;20745;-47
2022/03/10 04:22:40;;;;;;;5.83;5.33;;;14.10;41.70;15.20;101605.00;;;;5052439;28;20185;-48
2022/03/10 04:25:07;;;;;;;5.77;5.20;;;14.10;41.60;15.10;101605.00;;;;5056249;28;20320;-47
2022/03/10 04:27:32;;;;;;;5.93;5.37;;;14.10;41.70;15.10;101616.00;;;;5051661;28;20696;-48
2022/03/10 04:29:58;;;;;;;5.87;5.37;;;14.10;41.70;15.10;101613.00;;;;5052990;28;20178;-48
2022/03/10 04:32:24;;;;;;;6.03;5.43;;;14.10;41.50;15.10;101618.00;;;;5053622;28;20174;-48
2022/03/10 04:34:49;;;;;;;5.77;5.27;;;14.10;41.60;15.10;101608.00;;;;5053982;28;20331;-48
2022/03/10 04:37:15;;;;;;;6.00;5.40;;;14.10;41.50;15.10;101616.00;;;;5061313;28;20182;-48
2022/03/10 04:39:42;;;;;;;6.77;6.17;;;14.10;41.40;15.10;101620.00;;;;5052579;28;20194;-49
2022/03/10 04:42:07;;;;;;;6.13;5.50;;;14.00;41.50;15.10;101628.00;;;;5060849;28;20189;-49
2022/03/10 04:44:33;;;;;;;6.60;6.07;;;14.10;41.40;15.10;101624.00;;;;5053431;28;20193;-48
2022/03/10 04:46:59;;;;;;;6.80;6.20;;;14.10;41.40;15.10;101609.00;;;;5068257;28;20178;-48
2022/03/10 04:49:25;;;;;;;6.43;5.93;;;14.00;41.20;15.10;101603.00;;;;5052491;28;20218;-47
2022/03/10 04:51:50;;;;;;;6.30;5.70;;;14.00;41.20;15.10;101616.00;;;;5052176;28;20813;-47
2022/03/10 04:54:16;;;;;;;6.70;5.97;;;14.00;41.10;15.10;101613.00;;;;5051871;28;20630;-49
2022/03/10 04:56:42;;;;;;;6.10;5.50;;;14.00;41.20;15.10;101618.00;;;;5052325;28;20240;-48
2022/03/10 04:59:07;;;;;;;6.20;5.60;;;14.00;41.30;15.10;101617.00;;;;5052853;28;20194;-48
2022/03/10 05:01:34;;;;;;;6.17;5.60;;;14.00;41.40;15.10;101624.00;;;;5053964;28;20198;-47
2022/03/10 05:04:00;;;;;;;5.30;4.90;;;13.90;41.30;15.10;101628.00;;;;5053810;28;20197;-47
2022/03/10 05:06:26;;;;;;;6.87;5.47;;;13.90;41.40;15.10;101631.00;;;;5051945;28;20182;-47
2022/03/10 05:08:51;;;;;;;6.00;5.40;;;13.90;41.50;15.10;101623.00;;;;5052831;28;20179;-48
2022/03/10 05:11:17;;;;;;;5.97;5.27;;;13.90;41.60;15.00;101630.00;;;;5052402;28;20550;-49
2022/03/10 05:13:43;;;;;;;6.50;5.03;;;13.90;41.70;15.00;101626.00;;;;5052034;28;20182;-48
2022/03/10 05:16:08;;;;;;;7.67;4.87;;;13.90;41.70;15.00;101624.00;;;;5052943;28;20189;-48
2022/03/10 05:18:34;;;;;;;5.83;4.93;;;13.90;41.70;15.00;101624.00;;;;5053676;28;20178;-52
2022/03/10 05:21:00;;;;;;;5.70;5.07;;;13.90;41.80;15.00;101632.00;;;;5054730;28;20174;-47
2022/03/10 05:23:25;;;;;;;5.20;4.80;;;13.80;41.80;15.00;101632.00;;;;5054472;28;20250;-47
2022/03/10 05:25:51;;;;;;;6.00;4.87;;;13.80;41.90;14.90;101635.00;;;;5053205;28;20201;-48
2022/03/10 05:28:17;;;;;;;5.33;4.80;;;13.80;41.80;14.90;101626.00;;;;5052147;28;20175;-48
2022/03/10 05:30:45;;;;;;;5.90;4.30;;;13.80;41.80;14.90;101634.00;;;;5051760;28;20186;-46
2022/03/10 05:33:11;;;;;;;5.27;4.73;;;13.90;41.70;14.90;101625.00;;;;5052326;28;20201;-47
2022/03/10 05:35:37;;;;;;;5.27;4.77;;;13.90;41.70;14.90;101636.00;;;;5066786;28;20230;-47
2022/03/10 05:38:02;;;;;;;5.43;4.63;;;13.80;41.70;14.90;101634.00;;;;5052301;28;20178;-48
2022/03/10 05:40:28;;;;;;;5.97;4.57;;;13.80;41.60;14.90;101633.00;;;;5066942;28;20260;-46
2022/03/10 05:42:55;;;;;;;5.47;4.50;;;13.80;41.70;14.90;101626.00;;;;5052123;28;20166;-48
2022/03/10 05:45:20;;;;;;;5.57;4.60;;;13.80;41.70;14.90;101628.00;;;;5052116;28;20647;-47
2022/03/10 05:47:48;;;;;;;5.00;4.50;;;13.90;41.70;14.90;101630.00;;;;5060839;28;20184;-47
2022/03/10 05:50:14;;;;;;;4.87;4.47;;;13.90;41.70;14.90;101633.00;;;;5070108;28;20197;-47
2022/03/10 05:52:40;;;;;;;4.37;4.00;;;13.80;41.60;14.90;101635.00;;;;5070571;28;20173;-48
2022/03/10 05:55:06;;;;;;;4.60;4.20;;;13.80;41.70;14.90;101641.00;;;;5069692;28;20205;-48
2022/03/10 05:57:32;;;;;;;5.13;4.40;;;13.80;41.60;14.80;101641.00;;;;5071658;28;20178;-47
2022/03/10 05:59:58;;;;;;;4.73;4.33;;;13.80;41.60;14.80;101631.00;;;;5069066;28;20239;-48
2022/03/10 06:02:24;;;;;;;4.40;4.00;;;13.80;41.60;14.80;101639.00;;;;5071109;28;20645;-48
2022/03/10 06:04:49;;;;;;;5.30;4.17;;;13.80;41.60;14.80;101641.00;;;;5074322;28;20189;-46
2022/03/10 06:07:16;;;;;;;4.60;4.20;;;13.80;41.60;14.80;101642.00;;;;5077394;28;20181;-48
2022/03/10 06:09:42;;;;;;;4.70;4.30;;;13.80;41.70;14.80;101649.00;;;;5075541;28;20184;-45
2022/03/10 06:12:09;;;;;;;4.53;4.17;;;13.80;41.60;14.80;101642.00;;;;5075638;28;20173;-47
2022/03/10 06:14:35;;;;;;;4.77;4.37;;;13.80;41.70;14.80;101645.00;;;;5075207;28;20205;-47
2022/03/10 06:17:02;;;;;;;4.30;3.90;;;13.70;41.70;14.70;101639.00;;;;5073849;28;20174;-48
2022/03/10 06:19:28;;;;;;;4.33;3.90;;;13.70;41.80;14.80;101644.00;;;;5075238;28;20198;-48
2022/03/10 06:21:53;;;;;;;4.30;4.00;;;13.70;41.70;14.70;101651.00;;;;5074618;28;20681;-47
2022/03/10 06:24:19;;;;;;;4.50;4.20;;;13.70;41.70;14.70;101648.00;;;;5075326;28;20784;-47
2022/03/10 06:26:45;;;;;;;4.07;3.77;;;13.70;41.90;14.70;101653.00;;;;5070850;28;20180;-50
2022/03/10 06:29:13;;;;;;;4.43;4.10;;;13.70;41.90;14.70;101659.00;;;;5075511;28;20177;-48
2022/03/10 06:31:39;;;;;;;4.00;3.70;;;13.70;41.80;14.70;101658.00;;;;5073158;28;20177;-47
2022/03/10 06:34:05;;;;;;;4.00;3.70;;;13.70;41.90;14.70;101668.00;;;;5071791;28;20249;-48
2022/03/10 06:36:31;;;;;;;4.30;3.90;;;13.70;41.90;14.70;101664.00;;;;5074369;28;20205;-47
2022/03/10 06:38:57;;;;;;;4.20;3.90;;;13.70;41.90;14.70;101667.00;;;;5071547;28;20205;-47
2022/03/10 06:41:22;;;;;;;4.80;4.13;;;13.70;41.90;14.70;101661.00;;;;5073831;28;20169;-48
2022/03/10 06:43:48;;;;;;;4.30;3.97;;;13.60;41.90;14.70;101680.00;;;;5072500;28;20158;-46
2022/03/10 06:46:14;;;;;;;4.50;4.10;;;13.60;42.00;14.70;101663.00;;;;5070874;28;20252;-48
2022/03/10 06:48:40;;;;;;;4.40;4.00;;;13.60;42.20;14.60;101665.00;;;;5071663;28;20165;-48
2022/03/10 06:51:06;;;;;;;4.40;4.00;;;13.60;42.20;14.60;101668.00;;;;5074013;28;20162;-48
2022/03/10 06:53:32;;;;;;;4.40;4.00;;;13.60;42.30;14.60;101670.00;;;;5075221;28;20189;-48
2022/03/10 06:55:58;;;;;;;4.43;4.03;;;13.60;42.10;14.60;101673.00;;;;5074703;28;20205;-48
2022/03/10 06:58:24;;;;;;;4.27;3.87;;;13.60;42.10;14.60;101677.00;;;;5085484;28;20178;-48
2022/03/10 07:00:49;;;;;;;4.10;3.70;;;13.60;42.00;14.60;101682.00;;;;5075451;28;20266;-48
2022/03/10 07:03:15;;;;;;;4.30;3.90;;;13.60;41.90;14.60;101681.00;;;;5074496;28;20557;-49
2022/03/10 07:05:41;;;;;;;3.93;3.63;;;13.60;42.00;14.50;101677.00;;;;5078065;28;20189;-47
2022/03/10 07:08:07;;;;;;;4.07;3.77;;;13.60;42.10;14.50;101676.00;;;;5074341;28;20166;-47
2022/03/10 07:10:33;;;;;;;4.23;3.83;;;13.50;41.90;14.50;101677.00;;;;5074246;28;20214;-48
2022/03/10 07:12:59;;;;;;;4.10;3.80;;;13.50;41.80;14.50;101599.00;;;;5074950;28;20205;-48
2022/03/10 07:15:24;;;;;;;3.93;3.63;;;13.50;41.80;14.50;101672.00;;;;5073582;28;20193;-46
2022/03/10 07:17:50;;;;;;;3.90;3.60;;;13.50;41.80;14.50;101677.00;;;;5074683;28;20322;-47
2022/03/10 07:20:18;;;;;;;3.90;3.60;;;13.50;41.90;14.50;101678.00;;;;5075408;28;20453;-47
2022/03/10 07:22:45;;;;;;;4.27;3.87;;;13.50;41.90;14.50;101677.00;;;;5074384;28;20189;-48
2022/03/10 07:25:11;;;;;;;4.10;3.70;;;13.50;42.50;14.50;101682.00;;;;5073225;28;20273;-47
2022/03/10 07:27:37;;;;;;;4.13;3.73;;;13.50;41.90;14.50;101679.00;;;;5074425;28;20194;-46
2022/03/10 07:30:03;;;;;;;4.10;3.70;;;13.50;41.90;14.40;101682.00;;;;5075396;28;20961;-48
2022/03/10 07:32:29;;;;;;;3.83;3.53;;;13.50;41.90;14.40;101686.00;;;;5074531;28;20635;-48
2022/03/10 07:34:55;;;;;;;3.90;3.60;;;13.50;41.90;14.40;101676.00;;;;5073608;28;20204;-47
2022/03/10 07:37:20;;;;;;;4.00;3.60;;;13.40;41.90;14.40;101694.00;;;;5070497;28;20204;-51
2022/03/10 07:39:46;;;;;;;4.00;3.70;;;13.40;41.90;14.40;101686.00;;;;5073033;28;20538;-49
2022/03/10 07:42:12;;;;;;;4.10;3.70;;;13.40;41.90;14.40;101682.00;;;;5074316;28;20225;-47
2022/03/10 07:44:38;;;;;;;3.93;3.63;;;13.40;41.90;14.40;101693.00;;;;5074718;28;20193;-48
2022/03/10 07:47:04;;;;;;;3.97;3.67;;;13.40;42.00;14.40;101693.00;;;;5075432;28;20172;-47
2022/03/10 07:49:30;;;;;;;3.80;3.50;;;13.40;42.00;14.40;101694.00;;;;5073452;28;20607;-47
2022/03/10 07:51:56;;;;;;;3.83;3.53;;;13.30;41.90;14.40;101694.00;;;;5073919;28;20216;-45
2022/03/10 07:54:22;;;;;;;4.40;4.00;;;13.40;42.00;14.40;101694.00;;;;5073891;28;20197;-49
2022/03/10 07:56:48;;;;;;;4.03;3.70;;;13.40;42.10;14.40;101689.00;;;;5075018;28;20185;-47
2022/03/10 07:59:14;;;;;;;4.40;3.80;;;13.40;42.10;14.40;101692.00;;;;5074475;28;20884;-47
2022/03/10 08:01:39;;;;;;;4.20;3.80;;;13.40;42.00;14.30;101690.00;;;;5074381;28;20173;-48
2022/03/10 08:04:05;;;;;;;3.97;3.67;;;13.40;42.10;14.30;101683.00;;;;5074647;28;20254;-48
2022/03/10 08:06:31;;;;;;;3.90;3.60;;;13.40;42.00;14.30;101665.00;;;;5076449;28;20184;-48
2022/03/10 08:08:57;;;;;;;4.33;3.93;;;13.30;42.00;14.30;101681.00;;;;5081468;28;20255;-48
2022/03/10 08:11:22;;;;;;;4.17;3.77;;;13.30;42.70;14.30;101689.00;;;;5077180;28;20174;-47
2022/03/10 08:13:48;;;;;;;4.27;3.87;;;13.40;42.10;14.30;101692.00;;;;5074913;28;20181;-47
2022/03/10 08:16:14;;;;;;;4.10;3.80;;;13.30;42.20;14.30;101685.00;;;;5072166;28;20230;-49
2022/03/10 08:18:40;;;;;;;4.73;4.27;;;13.30;42.20;14.30;101684.00;;;;5067736;28;20173;-48
2022/03/10 08:21:06;;;;;;;4.30;3.90;;;13.30;42.30;14.30;101677.00;;;;5072412;28;20170;-49
2022/03/10 08:23:32;;;;;;;4.10;3.80;;;13.30;42.50;14.30;101675.00;;;;5071600;28;20184;-49
2022/03/10 08:25:57;;;;;;;4.53;4.13;;;13.30;42.40;14.20;101675.00;;;;5072232;28;20625;-47
2022/03/10 08:28:23;;;;;;;4.23;3.93;;;13.20;42.40;14.20;101678.00;;;;5071700;28;20192;-48
2022/03/10 08:30:49;;;;;;;4.60;4.20;;;13.20;42.40;14.20;101671.00;;;;5072400;28;20169;-48
2022/03/10 08:33:15;;;;;;;4.60;4.20;;;13.20;42.40;14.00;101668.00;;;;5073651;28;20782;-47
2022/03/10 08:35:40;;;;;;;4.50;4.10;;;13.20;42.50;14.20;101668.00;;;;5071732;28;20889;-48
2022/03/10 08:38:06;;;;;;;4.53;4.13;;;13.20;42.50;14.20;101666.00;;;;5072938;28;20173;-48
2022/03/10 08:40:32;;;;;;;4.33;3.93;;;13.20;42.60;14.20;101655.00;;;;5072478;28;20221;-47
2022/03/10 08:42:58;;;;;;;4.27;3.90;;;13.10;42.60;14.10;101659.00;;;;5073950;28;20193;-48
2022/03/10 08:45:25;;;;;;;4.57;4.17;;;13.10;42.80;13.90;101652.00;;;;5073043;28;20201;-49
2022/03/10 08:47:53;;;;;;;5.00;4.60;;;13.10;43.10;14.10;101660.00;;;;5073286;28;20169;-49
2022/03/10 08:50:19;;;;;;;5.13;4.57;;;13.10;43.10;14.10;101669.00;;;;5071381;28;20200;-48
2022/03/10 08:52:44;;;;;;;5.47;4.60;;;13.10;43.30;14.00;101667.00;;;;5072447;28;20173;-48
2022/03/10 08:55:11;;;;;;;4.97;4.40;;;13.10;43.50;14.00;101669.00;;;;5063462;28;20202;-46
2022/03/10 08:57:37;;;;;;;6.20;4.47;;;13.10;43.80;14.00;101665.00;;;;5071489;28;20544;-48
2022/03/10 09:00:08;;;;;;;5.67;4.30;;;13.10;44.00;14.00;101665.00;;;;5064695;28;20185;-49
2022/03/10 09:02:33;;;;;;;6.10;4.40;;;13.10;44.00;14.00;101666.00;;;;5060942;28;20226;-48
2022/03/10 09:04:59;;;;;;;4.90;4.50;;;13.10;43.90;14.00;101659.00;;;;5071600;28;20574;-47
2022/03/10 09:07:25;;;;;;;5.27;4.23;;;13.10;44.00;14.00;101654.00;;;;5071972;28;20170;-47
2022/03/10 09:09:50;;;;;;;5.83;4.77;;;13.10;43.90;14.00;101662.00;;;;5064477;28;20231;-48
2022/03/10 09:12:16;;;;;;;4.73;4.33;;;13.10;43.90;14.00;101651.00;;;;5055822;28;20178;-46
2022/03/10 09:14:42;;;;;;;5.27;4.77;;;13.20;44.00;14.00;101634.00;;;;5066496;28;20267;-49
2022/03/10 09:17:08;;;;;;;5.00;4.50;;;13.10;43.80;14.00;101647.00;;;;5072309;28;20230;-48
2022/03/10 09:19:34;;;;;;;4.87;4.47;;;13.10;43.80;14.00;101648.00;;;;5076978;28;20360;-49
2022/03/10 09:22:01;;;;;;;5.40;4.53;;;13.10;43.90;13.90;101638.00;;;;5070804;28;20165;-48
2022/03/10 09:24:26;;;;;;;6.17;4.73;;;13.10;44.00;13.90;101631.00;;;;5072332;28;20204;-46
2022/03/10 09:26:52;;;;;;;5.30;4.80;;;13.10;44.00;13.90;101636.00;;;;5072158;28;20564;-47
2022/03/10 09:29:18;;;;;;;6.20;4.60;;;13.10;44.10;13.90;101640.00;;;;5072605;28;20177;-48
2022/03/10 09:31:43;;;;;;;4.73;4.33;;;13.10;44.10;13.90;101642.00;;;;5072280;28;20166;-48
2022/03/10 09:34:09;;;;;;;5.20;4.70;;;13.10;44.10;13.90;101636.00;;;;5072995;28;20635;-47
2022/03/10 09:36:35;;;;;;;5.03;4.60;;;13.20;44.10;13.90;101642.00;;;;5074682;28;20228;-50
2022/03/10 09:39:01;;;;;;;5.20;4.80;;;13.20;44.20;13.90;101644.00;;;;5077077;28;20352;-47
2022/03/10 09:41:28;;;;;;;4.83;4.43;;;13.10;44.10;13.90;101645.00;;;;5073691;28;20172;-46
2022/03/10 09:43:54;;;;;;;4.97;4.57;;;13.20;44.30;13.90;101629.00;;;;5073755;28;20216;-49
2022/03/10 09:46:20;;;;;;;5.23;4.73;;;13.20;44.30;13.90;101642.00;;;;5071717;28;20170;-49
2022/03/10 09:48:46;;;;;;;5.20;4.70;;;13.20;44.90;14.00;101632.00;;;;5064882;28;20170;-48
2022/03/10 09:51:12;;;;;;;5.10;4.70;;;13.20;44.40;14.00;101636.00;;;;5049964;28;20189;-47
2022/03/10 09:53:37;;;;;;;5.47;4.97;;;13.20;44.40;14.00;101567.00;;;;5054802;28;20174;-50
2022/03/10 09:56:04;;;;;;;5.30;4.80;;;13.20;44.40;14.00;101632.00;;;;5053582;28;20162;-47
2022/03/10 09:58:31;;;;;;;5.13;4.63;;;13.20;44.60;14.00;101637.00;;;;5050394;28;20196;-49
2022/03/10 10:01:00;;;;;;;5.43;4.70;;;13.20;44.60;14.00;101628.00;;;;5050799;28;20210;-48
2022/03/10 10:03:26;;;;;;;5.10;4.60;;;13.20;44.60;14.00;101629.00;;;;5051261;28;20177;-48
2022/03/10 10:06:00;;;;;;;5.10;4.70;;;13.20;44.60;14.00;101630.00;;;;5055120;28;20600;-48
2022/03/10 10:08:25;;;;;;;5.03;4.53;;;13.20;44.70;14.00;101619.00;;;;5049404;28;20520;-47
2022/03/10 10:10:56;;;;;;;5.07;4.67;;;13.30;44.70;14.00;101617.00;;;;5050807;28;20193;-49
2022/03/10 10:13:38;;;;;;;5.30;4.80;;;13.30;44.80;14.00;101609.00;;;;5053486;28;20167;-47
2022/03/10 10:16:13;;;;;;;5.07;4.57;;;13.30;44.70;14.00;101618.00;;;;5053798;28;20166;-47
2022/03/10 10:18:39;;;;;;;5.40;4.90;;;13.30;44.70;14.00;101619.00;;;;5055117;28;20198;-49
2022/03/10 10:21:05;;;;;;;5.40;4.90;;;13.30;44.80;14.00;101613.00;;;;5056265;28;20231;-48
2022/03/10 10:23:33;;;;;;;4.97;4.57;;;13.30;44.80;14.10;101622.00;;;;5056124;28;20748;-47
2022/03/10 10:26:08;;;;;;;5.10;4.60;;;13.40;45.80;14.10;101615.00;;;;5055180;28;20182;-49
2022/03/10 10:28:38;;;;;;;5.93;4.40;;;13.50;45.90;14.20;101616.00;;;;5055377;28;20451;-48
2022/03/10 10:31:15;;;;;;;5.20;4.70;;;13.50;45.70;14.20;101541.00;;;;5055153;28;20239;-48
2022/03/10 10:33:54;;;;;;;8.13;4.80;;;13.60;46.10;14.20;101612.00;;;;5055617;28;20627;-47
2022/03/10 10:36:24;;;;;;;6.53;4.50;;;13.60;46.50;14.30;101600.00;;;;5056120;28;20182;-48
2022/03/10 10:38:57;;;;;;;5.13;4.50;;;13.70;46.60;14.30;101603.00;;;;5056080;28;20715;-47
2022/03/10 10:41:29;;;;;;;7.77;4.73;;;13.60;46.40;14.30;101598.00;;;;5053282;28;20731;-48
2022/03/10 10:44:04;;;;;;;8.80;4.73;;;13.60;46.40;14.30;101594.00;;;;5050953;28;20558;-47
2022/03/10 10:46:41;;;;;;;7.40;4.97;;;13.60;46.30;14.30;101595.00;;;;5064416;28;20653;-47
2022/03/10 10:49:12;;;;;;;6.00;4.70;;;13.60;46.30;14.30;101593.00;;;;5073187;28;20197;-48